Etretat — FIDP — position and weather

sailwx.info

Track history (hours):
 
Tides and Currents Weather Stations Pressure Air Temp Water Temp Dewpoint Dewpoint Depression Visibility Wind Speed Wind Dir Waves Ship Positions

Etretat

Last reported at 2015-Sep-04 03:33 UTC. Time now 2015-Sep-04 03:51 UTC.
Position N 50°29' W 000°46'.

Length 187 m; draft 6 m.

Type: Ship. MMSI: 228022900.

Date/timePositionNaut miles runAvg speedWind from/ knotsBaromVisibWave heightAir tempDewpointWater temp
2015-Sep-04 03:33N 50°29' W 000°46'4314.4
2015-Sep-04 00:34N 49°50' W 000°14'1413.9
2015-Sep-03 23:34N 49°40' E 000°00'2 1.8
2015-Sep-03 22:33N 49°40' W 000°02'2 2.4
2015-Sep-03 21:33N 49°38' W 000°03'1110.7
2015-Sep-03 20:33N 49°29' E 000°07'0 0.0
2015-Sep-03 19:33N 49°29' E 000°07'0 0.0
2015-Sep-03 18:33N 49°29' E 000°07'0 0.0
2015-Sep-03 17:33N 49°29' E 000°07'0 0.0
2015-Sep-03 16:34N 49°29' E 000°07'0 0.0
2015-Sep-03 15:34N 49°29' E 000°07'0 0.0
2015-Sep-03 14:33N 49°29' E 000°07'0 0.0
2015-Sep-03 13:33N 49°29' E 000°07'0 0.0
2015-Sep-03 12:33N 49°29' E 000°07'0 0.0
2015-Sep-03 11:34N 49°29' E 000°07'0 0.0
2015-Sep-03 10:34N 49°29' E 000°07'0 0.0
2015-Sep-03 09:33N 49°29' E 000°07'0 0.0
2015-Sep-03 08:34N 49°29' E 000°07'0 0.0
2015-Sep-03 07:34N 49°29' E 000°07'0 0.0
2015-Sep-03 06:33N 49°29' E 000°07'5 5.0
2015-Sep-03 05:33N 49°31' W 000°00'1717.1
2015-Sep-03 04:33N 49°46' W 000°13'5714.2
2015-Sep-03 00:34N 50°37' W 000°53'1313.4
2015-Sep-02 23:34N 50°47' W 001°07'1 1.4
2015-Sep-02 22:33N 50°49' W 001°06'0 0.0
2015-Sep-02 21:34N 50°49' W 001°06'0 0.0
2015-Sep-02 20:33N 50°49' W 001°06'6 6.5
2015-Sep-02 19:34N 50°43' W 001°01'5421.8
2015-Sep-02 17:06N 49°56' W 000°20'1323.0
2015-Sep-02 16:33N 49°45' W 000°11'2019.6
2015-Sep-02 15:33N 49°29' E 000°07'0 0.1
2015-Sep-02 14:33N 49°29' E 000°07'0 0.0
2015-Sep-02 13:33N 49°29' E 000°07'0 0.0
2015-Sep-02 12:33N 49°29' E 000°07'0 0.0
2015-Sep-02 11:34N 49°29' E 000°07'0 0.0
2015-Sep-02 10:33N 49°29' E 000°07'0 0.0
2015-Sep-02 09:33N 49°29' E 000°07'0 0.0
2015-Sep-02 08:33N 49°29' E 000°07'0 0.0
2015-Sep-02 07:33N 49°29' E 000°07'0 0.0
2015-Sep-02 06:33N 49°29' E 000°07'0 0.4
2015-Sep-02 05:34N 49°29' E 000°06'1514.6
2015-Sep-02 04:34N 49°40' W 000°08'5714.1
2015-Sep-02 00:30N 50°32' W 000°48'1314.3
2015-Sep-01 23:34N 50°43' W 000°60'7 7.0
2015-Sep-01 22:34N 50°49' W 001°06'0 0.0
2015-Sep-01 21:33N 50°49' W 001°06'0 0.0
2015-Sep-01 20:33N 50°49' W 001°06'8 7.9
2015-Sep-01 19:33N 50°42' W 000°58'5120.5
2015-Sep-01 17:05N 49°57' W 000°22'1120.8
2015-Sep-01 16:33N 49°47' W 000°14'2120.9
2015-Sep-01 15:33N 49°30' E 000°03'2 2.5
2015-Sep-01 14:33N 49°29' E 000°07'0 0.0
2015-Sep-01 13:34N 49°29' E 000°07'0 0.0
2015-Sep-01 12:34N 49°29' E 000°07'0 0.0
2015-Sep-01 11:34N 49°29' E 000°07'0 0.0
2015-Sep-01 10:33N 49°29' E 000°07'0 0.0
2015-Sep-01 09:34N 49°29' E 000°07'0 0.0
2015-Sep-01 08:34N 49°29' E 000°07'0 0.0
2015-Sep-01 07:34N 49°29' E 000°07'0 0.0
2015-Sep-01 06:34N 49°29' E 000°07'0 0.0
2015-Sep-01 05:34N 49°29' E 000°07'3 3.0
2015-Sep-01 04:33N 49°30' E 000°02'1615.5
2015-Sep-01 03:33N 49°43' W 000°10'5513.8
2015-Aug-31 23:33N 50°32' W 000°51'1413.6
2015-Aug-31 22:33N 50°43' W 001°02'6 5.8
2015-Aug-31 21:33N 50°49' W 001°06'0 0.0
2015-Aug-31 20:33N 50°49' W 001°06'0 0.0
2015-Aug-31 19:33N 50°49' W 001°06'0 0.0
2015-Aug-31 18:33N 50°49' W 001°06'0 0.0
2015-Aug-31 17:33N 50°49' W 001°06'0 0.0
2015-Aug-31 16:33N 50°49' W 001°06'0 0.0
2015-Aug-31 15:33N 50°49' W 001°06'0 0.0
2015-Aug-31 14:33N 50°49' W 001°06'5 5.2
2015-Aug-31 13:33N 50°44' W 001°04'1313.1
2015-Aug-31 12:33N 50°33' W 001°15'17819.7
2015-Aug-31 03:33N 48°38' W 004°45'1817.9
2015-Aug-31 02:33N 48°26' W 005°04'2222.2
2015-Aug-31 01:34N 48°04' W 005°11'5022.1
2015-Aug-30 23:17N 47°15' W 004°56'18122.2
2015-Aug-30 15:08N 44°18' W 003°60'1921.4
2015-Aug-30 14:14N 43°59' W 003°53'1421.3
2015-Aug-30 13:33N 43°45' W 003°48'14812.1
2015-Aug-30 01:19N 46°10' W 004°32'2722.2
2015-Aug-30 00:05N 46°37' W 004°42'1322.2
2015-Aug-29 23:31N 46°49' W 004°46'6521.9
2015-Aug-29 20:32N 47°53' W 005°05'1919.8
2015-Aug-29 19:33N 48°12' W 005°09'1615.9
2015-Aug-29 18:33N 48°27' W 005°00'14520.7
2015-Aug-29 11:33N 50°07' W 002°20'2222.0
2015-Aug-29 10:33N 50°18' W 001°50'2120.6
2015-Aug-29 09:33N 50°29' W 001°22'1817.7
2015-Aug-29 08:34N 50°41' W 001°03'8 7.7
2015-Aug-29 07:33N 50°49' W 001°06'0 0.0
2015-Aug-29 06:33N 50°49' W 001°06'0 0.0
2015-Aug-29 05:33N 50°49' W 001°06'0 0.0
2015-Aug-29 04:33N 50°49' W 001°06'8 7.7
2015-Aug-29 03:34N 50°42' W 000°59'1815.3
2015-Aug-29 02:22N 50°26' W 000°45'3114.9
2015-Aug-29 00:18N 49°59' W 000°24'1115.2
2015-Aug-28 23:34N 49°48' W 000°17'5 4.8
2015-Aug-28 22:33N 49°44' W 000°15'2 1.9
2015-Aug-28 21:33N 49°42' W 000°13'1312.8
2015-Aug-28 20:34N 49°33' W 000°00'6 5.8
2015-Aug-28 19:33N 49°29' E 000°07'0 0.0
2015-Aug-28 18:34N 49°29' E 000°07'0 0.0
2015-Aug-28 17:33N 49°29' E 000°07'0 0.0
2015-Aug-28 16:34N 49°29' E 000°07'0 0.0
2015-Aug-28 15:34N 49°29' E 000°07'0 0.0
2015-Aug-28 14:34N 49°29' E 000°07'9 9.3
2015-Aug-28 13:34N 49°36' W 000°03'6119.3
2015-Aug-28 10:22N 50°30' W 000°49'1518.7
2015-Aug-28 09:33N 50°43' W 001°00'7 6.6
2015-Aug-28 08:33N 50°49' W 001°06'0 0.0
2015-Aug-28 07:33N 50°49' W 001°06'0 0.0
2015-Aug-28 06:33N 50°49' W 001°06'0 0.0
2015-Aug-28 05:33N 50°49' W 001°06'9 9.3
2015-Aug-28 04:34N 50°41' W 000°57'1514.8
2015-Aug-28 03:33N 50°27' W 000°49'3215.7
2015-Aug-28 01:29N 49°58' W 000°25'1415.2
2015-Aug-28 00:34N 49°46' W 000°16'1 1.1
2015-Aug-27 23:34N 49°45' W 000°17'1 1.2
2015-Aug-27 22:33N 49°43' W 000°16'1110.7
2015-Aug-27 21:34N 49°36' W 000°04'10 9.8
2015-Aug-27 20:33N 49°29' E 000°07'0 0.0
2015-Aug-27 19:33N 49°29' E 000°07'0 0.0
2015-Aug-27 18:33N 49°29' E 000°07'0 0.0
2015-Aug-27 17:33N 49°29' E 000°07'0 0.0
2015-Aug-27 16:33N 49°29' E 000°07'0 0.0
2015-Aug-27 15:33N 49°29' E 000°07'0 0.0
2015-Aug-27 14:33N 49°29' E 000°07'0 0.0
2015-Aug-27 13:33N 49°29' E 000°07'0 0.0
2015-Aug-27 12:33N 49°29' E 000°07'0 0.0
2015-Aug-27 11:33N 49°29' E 000°07'0 0.0
2015-Aug-27 10:33N 49°29' E 000°07'0 0.0
2015-Aug-27 09:33N 49°29' E 000°07'0 0.0
2015-Aug-27 08:33N 49°29' E 000°07'0 0.0
2015-Aug-27 07:33N 49°29' E 000°07'0 0.0
2015-Aug-27 06:33N 49°29' E 000°07'1 0.8
2015-Aug-27 05:33N 49°29' E 000°06'1413.8
2015-Aug-27 04:33N 49°40' W 000°07'1514.8
2015-Aug-27 03:33N 49°54' W 000°17'4514.9
2015-Aug-27 00:33N 50°33' W 000°50'1313.5
2015-Aug-26 23:34N 50°44' W 001°03'5 5.4
2015-Aug-26 22:33N 50°49' W 001°06'0 0.0
2015-Aug-26 21:33N 50°49' W 001°06'0 0.1
2015-Aug-26 20:33N 50°49' W 001°06'9 9.2
2015-Aug-26 19:33N 50°41' W 000°59'6321.1
2015-Aug-26 16:33N 49°45' W 000°11'1919.3
2015-Aug-26 15:34N 49°29' E 000°05'1 0.8
2015-Aug-26 14:34N 49°29' E 000°07'0 0.0
2015-Aug-26 13:34N 49°29' E 000°07'0 0.0
2015-Aug-26 12:34N 49°29' E 000°07'0 0.0
2015-Aug-26 11:34N 49°29' E 000°07'0 0.0
2015-Aug-26 10:34N 49°29' E 000°07'0 0.0
2015-Aug-26 09:33N 49°29' E 000°07'0 0.0
2015-Aug-26 08:34N 49°29' E 000°07'0 0.0
2015-Aug-26 07:34N 49°29' E 000°07'0 0.0
2015-Aug-26 06:33N 49°29' E 000°07'1 0.8
2015-Aug-26 05:34N 49°29' E 000°05'1413.8
2015-Aug-26 04:33N 49°40' W 000°07'5914.7
2015-Aug-26 00:33N 50°32' W 000°51'1414.0
2015-Aug-25 23:33N 50°44' W 001°03'5 5.2
2015-Aug-25 22:33N 50°49' W 001°06'0 0.0
2015-Aug-25 21:33N 50°49' W 001°06'0 0.0
2015-Aug-25 20:33N 50°49' W 001°06'9 9.3
2015-Aug-25 19:33N 50°41' W 000°58'5221.4
2015-Aug-25 17:07N 49°55' W 000°19'1220.7
2015-Aug-25 16:33N 49°45' W 000°10'1918.9
2015-Aug-25 15:33N 49°29' E 000°06'1 0.6
2015-Aug-25 14:33N 49°29' E 000°07'0 0.0
2015-Aug-25 13:33N 49°29' E 000°07'0 0.0
2015-Aug-25 12:33N 49°29' E 000°07'0 0.0
2015-Aug-25 11:33N 49°29' E 000°07'0 0.0
2015-Aug-25 10:33N 49°29' E 000°07'0 0.0
2015-Aug-25 09:33N 49°29' E 000°07'0 0.0
2015-Aug-25 08:33N 49°29' E 000°07'0 0.0
2015-Aug-25 07:33N 49°29' E 000°07'0 0.0
2015-Aug-25 06:33N 49°29' E 000°07'3 3.0
2015-Aug-25 05:33N 49°30' E 000°02'1313.0
2015-Aug-25 04:34N 49°39' W 000°11'1515.0
2015-Aug-25 03:33N 49°54' W 000°18'  
Track history (hours):
 
Tides and Currents Weather Stations Pressure Air Temp Water Temp Dewpoint Dewpoint Depression Visibility Wind Speed Wind Dir Waves Ship Positions

Etretat

Last reported at 2015-Sep-04 03:33 UTC. Time now 2015-Sep-04 03:51 UTC.
Position N 50°29' W 000°46'.

Length 187 m; draft 6 m.

Type: Ship. MMSI: 228022900.

Date/timePositionNaut miles runAvg speedWind from/ knotsBaromVisibWave heightAir tempDewpointWater temp
2015-Sep-04 03:33N 50°29' W 000°46'4314.4
2015-Sep-04 00:34N 49°50' W 000°14'1413.9
2015-Sep-03 23:34N 49°40' E 000°00'2 1.8
2015-Sep-03 22:33N 49°40' W 000°02'2 2.4
2015-Sep-03 21:33N 49°38' W 000°03'1110.7
2015-Sep-03 20:33N 49°29' E 000°07'0 0.0
2015-Sep-03 19:33N 49°29' E 000°07'0 0.0
2015-Sep-03 18:33N 49°29' E 000°07'0 0.0
2015-Sep-03 17:33N 49°29' E 000°07'0 0.0
2015-Sep-03 16:34N 49°29' E 000°07'0 0.0
2015-Sep-03 15:34N 49°29' E 000°07'0 0.0
2015-Sep-03 14:33N 49°29' E 000°07'0 0.0
2015-Sep-03 13:33N 49°29' E 000°07'0 0.0
2015-Sep-03 12:33N 49°29' E 000°07'0 0.0
2015-Sep-03 11:34N 49°29' E 000°07'0 0.0
2015-Sep-03 10:34N 49°29' E 000°07'0 0.0
2015-Sep-03 09:33N 49°29' E 000°07'0 0.0
2015-Sep-03 08:34N 49°29' E 000°07'0 0.0
2015-Sep-03 07:34N 49°29' E 000°07'0 0.0
2015-Sep-03 06:33N 49°29' E 000°07'5 5.0
2015-Sep-03 05:33N 49°31' W 000°00'1717.1
2015-Sep-03 04:33N 49°46' W 000°13'5714.2
2015-Sep-03 00:34N 50°37' W 000°53'1313.4
2015-Sep-02 23:34N 50°47' W 001°07'1 1.4
2015-Sep-02 22:33N 50°49' W 001°06'0 0.0
2015-Sep-02 21:34N 50°49' W 001°06'0 0.0
2015-Sep-02 20:33N 50°49' W 001°06'6 6.5
2015-Sep-02 19:34N 50°43' W 001°01'5421.8
2015-Sep-02 17:06N 49°56' W 000°20'1323.0
2015-Sep-02 16:33N 49°45' W 000°11'2019.6
2015-Sep-02 15:33N 49°29' E 000°07'0 0.1
2015-Sep-02 14:33N 49°29' E 000°07'0 0.0
2015-Sep-02 13:33N 49°29' E 000°07'0 0.0
2015-Sep-02 12:33N 49°29' E 000°07'0 0.0
2015-Sep-02 11:34N 49°29' E 000°07'0 0.0
2015-Sep-02 10:33N 49°29' E 000°07'0 0.0
2015-Sep-02 09:33N 49°29' E 000°07'0 0.0
2015-Sep-02 08:33N 49°29' E 000°07'0 0.0
2015-Sep-02 07:33N 49°29' E 000°07'0 0.0
2015-Sep-02 06:33N 49°29' E 000°07'0 0.4
2015-Sep-02 05:34N 49°29' E 000°06'1514.6
2015-Sep-02 04:34N 49°40' W 000°08'5714.1
2015-Sep-02 00:30N 50°32' W 000°48'1314.3
2015-Sep-01 23:34N 50°43' W 000°60'7 7.0
2015-Sep-01 22:34N 50°49' W 001°06'0 0.0
2015-Sep-01 21:33N 50°49' W 001°06'0 0.0
2015-Sep-01 20:33N 50°49' W 001°06'8 7.9
2015-Sep-01 19:33N 50°42' W 000°58'5120.5
2015-Sep-01 17:05N 49°57' W 000°22'1120.8
2015-Sep-01 16:33N 49°47' W 000°14'2120.9
2015-Sep-01 15:33N 49°30' E 000°03'2 2.5
2015-Sep-01 14:33N 49°29' E 000°07'0 0.0
2015-Sep-01 13:34N 49°29' E 000°07'0 0.0
2015-Sep-01 12:34N 49°29' E 000°07'0 0.0
2015-Sep-01 11:34N 49°29' E 000°07'0 0.0
2015-Sep-01 10:33N 49°29' E 000°07'0 0.0
2015-Sep-01 09:34N 49°29' E 000°07'0 0.0
2015-Sep-01 08:34N 49°29' E 000°07'0 0.0
2015-Sep-01 07:34N 49°29' E 000°07'0 0.0
2015-Sep-01 06:34N 49°29' E 000°07'0 0.0
2015-Sep-01 05:34N 49°29' E 000°07'3 3.0
2015-Sep-01 04:33N 49°30' E 000°02'1615.5
2015-Sep-01 03:33N 49°43' W 000°10'5513.8
2015-Aug-31 23:33N 50°32' W 000°51'1413.6
2015-Aug-31 22:33N 50°43' W 001°02'6 5.8
2015-Aug-31 21:33N 50°49' W 001°06'0 0.0
2015-Aug-31 20:33N 50°49' W 001°06'0 0.0
2015-Aug-31 19:33N 50°49' W 001°06'0 0.0
2015-Aug-31 18:33N 50°49' W 001°06'0 0.0
2015-Aug-31 17:33N 50°49' W 001°06'0 0.0
2015-Aug-31 16:33N 50°49' W 001°06'0 0.0
2015-Aug-31 15:33N 50°49' W 001°06'0 0.0
2015-Aug-31 14:33N 50°49' W 001°06'5 5.2
2015-Aug-31 13:33N 50°44' W 001°04'1313.1
2015-Aug-31 12:33N 50°33' W 001°15'17819.7
2015-Aug-31 03:33N 48°38' W 004°45'1817.9
2015-Aug-31 02:33N 48°26' W 005°04'2222.2
2015-Aug-31 01:34N 48°04' W 005°11'5022.1
2015-Aug-30 23:17N 47°15' W 004°56'18122.2
2015-Aug-30 15:08N 44°18' W 003°60'1921.4
2015-Aug-30 14:14N 43°59' W 003°53'1421.3
2015-Aug-30 13:33N 43°45' W 003°48'14812.1
2015-Aug-30 01:19N 46°10' W 004°32'2722.2
2015-Aug-30 00:05N 46°37' W 004°42'1322.2
2015-Aug-29 23:31N 46°49' W 004°46'6521.9
2015-Aug-29 20:32N 47°53' W 005°05'1919.8
2015-Aug-29 19:33N 48°12' W 005°09'1615.9
2015-Aug-29 18:33N 48°27' W 005°00'14520.7
2015-Aug-29 11:33N 50°07' W 002°20'2222.0
2015-Aug-29 10:33N 50°18' W 001°50'2120.6
2015-Aug-29 09:33N 50°29' W 001°22'1817.7
2015-Aug-29 08:34N 50°41' W 001°03'8 7.7
2015-Aug-29 07:33N 50°49' W 001°06'0 0.0
2015-Aug-29 06:33N 50°49' W 001°06'0 0.0
2015-Aug-29 05:33N 50°49' W 001°06'0 0.0
2015-Aug-29 04:33N 50°49' W 001°06'8 7.7
2015-Aug-29 03:34N 50°42' W 000°59'1815.3
2015-Aug-29 02:22N 50°26' W 000°45'3114.9
2015-Aug-29 00:18N 49°59' W 000°24'1115.2
2015-Aug-28 23:34N 49°48' W 000°17'5 4.8
2015-Aug-28 22:33N 49°44' W 000°15'2 1.9
2015-Aug-28 21:33N 49°42' W 000°13'1312.8
2015-Aug-28 20:34N 49°33' W 000°00'6 5.8
2015-Aug-28 19:33N 49°29' E 000°07'0 0.0
2015-Aug-28 18:34N 49°29' E 000°07'0 0.0
2015-Aug-28 17:33N 49°29' E 000°07'0 0.0
2015-Aug-28 16:34N 49°29' E 000°07'0 0.0
2015-Aug-28 15:34N 49°29' E 000°07'0 0.0
2015-Aug-28 14:34N 49°29' E 000°07'9 9.3
2015-Aug-28 13:34N 49°36' W 000°03'6119.3
2015-Aug-28 10:22N 50°30' W 000°49'1518.7
2015-Aug-28 09:33N 50°43' W 001°00'7 6.6
2015-Aug-28 08:33N 50°49' W 001°06'0 0.0
2015-Aug-28 07:33N 50°49' W 001°06'0 0.0
2015-Aug-28 06:33N 50°49' W 001°06'0 0.0
2015-Aug-28 05:33N 50°49' W 001°06'9 9.3
2015-Aug-28 04:34N 50°41' W 000°57'1514.8
2015-Aug-28 03:33N 50°27' W 000°49'3215.7
2015-Aug-28 01:29N 49°58' W 000°25'1415.2
2015-Aug-28 00:34N 49°46' W 000°16'1 1.1
2015-Aug-27 23:34N 49°45' W 000°17'1 1.2
2015-Aug-27 22:33N 49°43' W 000°16'1110.7
2015-Aug-27 21:34N 49°36' W 000°04'10 9.8
2015-Aug-27 20:33N 49°29' E 000°07'0 0.0
2015-Aug-27 19:33N 49°29' E 000°07'0 0.0
2015-Aug-27 18:33N 49°29' E 000°07'0 0.0
2015-Aug-27 17:33N 49°29' E 000°07'0 0.0
2015-Aug-27 16:33N 49°29' E 000°07'0 0.0
2015-Aug-27 15:33N 49°29' E 000°07'0 0.0
2015-Aug-27 14:33N 49°29' E 000°07'0 0.0
2015-Aug-27 13:33N 49°29' E 000°07'0 0.0
2015-Aug-27 12:33N 49°29' E 000°07'0 0.0
2015-Aug-27 11:33N 49°29' E 000°07'0 0.0
2015-Aug-27 10:33N 49°29' E 000°07'0 0.0
2015-Aug-27 09:33N 49°29' E 000°07'0 0.0
2015-Aug-27 08:33N 49°29' E 000°07'0 0.0
2015-Aug-27 07:33N 49°29' E 000°07'0 0.0
2015-Aug-27 06:33N 49°29' E 000°07'1 0.8
2015-Aug-27 05:33N 49°29' E 000°06'1413.8
2015-Aug-27 04:33N 49°40' W 000°07'1514.8
2015-Aug-27 03:33N 49°54' W 000°17'4514.9
2015-Aug-27 00:33N 50°33' W 000°50'1313.5
2015-Aug-26 23:34N 50°44' W 001°03'5 5.4
2015-Aug-26 22:33N 50°49' W 001°06'0 0.0
2015-Aug-26 21:33N 50°49' W 001°06'0 0.1
2015-Aug-26 20:33N 50°49' W 001°06'9 9.2
2015-Aug-26 19:33N 50°41' W 000°59'6321.1
2015-Aug-26 16:33N 49°45' W 000°11'1919.3
2015-Aug-26 15:34N 49°29' E 000°05'1 0.8
2015-Aug-26 14:34N 49°29' E 000°07'0 0.0
2015-Aug-26 13:34N 49°29' E 000°07'0 0.0
2015-Aug-26 12:34N 49°29' E 000°07'0 0.0
2015-Aug-26 11:34N 49°29' E 000°07'0 0.0
2015-Aug-26 10:34N 49°29' E 000°07'0 0.0
2015-Aug-26 09:33N 49°29' E 000°07'0 0.0
2015-Aug-26 08:34N 49°29' E 000°07'0 0.0
2015-Aug-26 07:34N 49°29' E 000°07'0 0.0
2015-Aug-26 06:33N 49°29' E 000°07'1 0.8
2015-Aug-26 05:34N 49°29' E 000°05'1413.8
2015-Aug-26 04:33N 49°40' W 000°07'5914.7
2015-Aug-26 00:33N 50°32' W 000°51'1414.0
2015-Aug-25 23:33N 50°44' W 001°03'5 5.2
2015-Aug-25 22:33N 50°49' W 001°06'0 0.0
2015-Aug-25 21:33N 50°49' W 001°06'0 0.0
2015-Aug-25 20:33N 50°49' W 001°06'9 9.3
2015-Aug-25 19:33N 50°41' W 000°58'5221.4
2015-Aug-25 17:07N 49°55' W 000°19'1220.7
2015-Aug-25 16:33N 49°45' W 000°10'1918.9
2015-Aug-25 15:33N 49°29' E 000°06'1 0.6
2015-Aug-25 14:33N 49°29' E 000°07'0 0.0
2015-Aug-25 13:33N 49°29' E 000°07'0 0.0
2015-Aug-25 12:33N 49°29' E 000°07'0 0.0
2015-Aug-25 11:33N 49°29' E 000°07'0 0.0
2015-Aug-25 10:33N 49°29' E 000°07'0 0.0
2015-Aug-25 09:33N 49°29' E 000°07'0 0.0
2015-Aug-25 08:33N 49°29' E 000°07'0 0.0
2015-Aug-25 07:33N 49°29' E 000°07'0 0.0
2015-Aug-25 06:33N 49°29' E 000°07'3 3.0
2015-Aug-25 05:33N 49°30' E 000°02'1313.0
2015-Aug-25 04:34N 49°39' W 000°11'1515.0
2015-Aug-25 03:33N 49°54' W 000°18'  

Dump ship's entire track history